PHJR

Kalaeloa (John Rodgers Field) Airport

Kapolei, Hawaii, USA
PHJR 221942Z 2220/2318 05011KT P6SM SCT250 FM222200 09011G16KT P6SM SCT045 FM230600 VRB06KT P6SM SCT035
Issued Valid From Valid To
Jul-22 @ 19:42 UTC
(39 minutes ago)
Jul-22 @ 20:00 UTC
(21 minutes ago)
Jul-23 @ 18:00 UTC
(in 22 hours)
Jul-22 @ 20:00 to Jul-22 @ 22:00
PHJR 221942Z 2220/2318 05011KT P6SM SCT250
Wind Visibility Clouds
50° at 11 knots Greater than 6 miles
  • Scattered at 25,000' AGL
From Jul-22 @ 22:00 to Jul-23 @ 06:00
FM222200 09011G16KT P6SM SCT045
Wind Visibility Clouds
90° at 11 knots
 Gusting to 16 knots
Greater than 6 miles
  • Scattered at 4,500' AGL
From Jul-23 @ 06:00 to Jul-23 @ 18:00
FM230600 VRB06KT P6SM SCT035
Wind Visibility Clouds
Variable at 6 knots Greater than 6 miles
  • Scattered at 3,500' AGL
PHJR 221942Z 2220/2318 05011KT P6SM SCT250 FM222200 09011G16KT P6SM SCT045 FM230600 VRB06KT P6SM SCT035
Issued Jul-22 @ 19:42 UTC
(39 minutes ago)
Valid From Jul-22 @ 20:00 UTC
(21 minutes ago)
Valid To Jul-23 @ 18:00 UTC
(in 22 hours)
Jul-22 @ 20:00 - Jul-22 @ 22:00
Wind Visibility
50° at 11 knots Greater than 6 miles
Clouds
  • Scattered at 25,000' AGL
From Jul-22 @ 22:00 - Jul-23 @ 06:00
Wind Visibility
90° at 11 knots
 Gusting to 16 knots
Greater than 6 miles
Clouds
  • Scattered at 4,500' AGL
From Jul-23 @ 06:00 - Jul-23 @ 18:00
Wind Visibility
Variable at 6 knots Greater than 6 miles
Clouds
  • Scattered at 3,500' AGL